Time;durP1;ratioP1;P1;durP2;ratioP2;P2;SDS_P1;SDS_P2;PMS_P1;PMS_P2;Temp;Humidity;BMP_temperature;BMP_pressure;BME280_temperature;BME280_humidity;BME280_pressure;Samples;Min_cycle;Max_cycle;Signal;HPM_P1;HPM_P2
2021/11/06 00:00:07;;;;;;;4.88;1.90;;;;;;;20.60;40.90;102748.03;5073988;28;20384;-60
2021/11/06 00:02:34;;;;;;;4.70;2.10;;;;;;;20.58;40.93;102749.91;5074852;28;20123;-61
2021/11/06 00:05:00;;;;;;;3.38;1.50;;;;;;;20.56;40.87;102743.03;5074741;28;20043;-60
2021/11/06 00:07:25;;;;;;;4.40;2.00;;;;;;;20.54;40.90;102750.22;5074501;28;20407;-60
2021/11/06 00:09:50;;;;;;;4.60;1.90;;;;;;;20.50;40.99;102746.03;5075085;28;20304;-60
2021/11/06 00:12:16;;;;;;;5.37;2.20;;;;;;;20.47;40.98;102750.59;5074819;28;20028;-60
2021/11/06 00:14:41;;;;;;;4.78;2.00;;;;;;;20.44;40.97;102747.25;5074089;28;20783;-60
2021/11/06 00:17:07;;;;;;;5.47;2.20;;;;;;;20.40;40.95;102743.94;5074436;28;20031;-59
2021/11/06 00:19:32;;;;;;;6.22;2.20;;;;;;;20.40;41.12;102743.09;5075119;28;20081;-61
2021/11/06 00:21:57;;;;;;;3.90;1.93;;;;;;;20.36;41.12;102741.59;5073788;28;20035;-59
2021/11/06 00:24:22;;;;;;;4.50;2.13;;;;;;;20.32;41.21;102740.09;5075045;28;20305;-60
2021/11/06 00:26:49;;;;;;;4.80;2.00;;;;;;;20.29;41.07;102734.00;5074208;28;20047;-60
2021/11/06 00:29:18;;;;;;;5.07;2.25;;;;;;;20.26;40.97;102734.19;5073317;28;20335;-60
2021/11/06 00:31:43;;;;;;;5.07;2.05;;;;;;;20.24;41.13;102730.78;5074676;28;20078;-59
2021/11/06 00:34:09;;;;;;;5.40;2.30;;;;;;;20.23;41.10;102737.03;5074291;28;20032;-60
2021/11/06 00:36:34;;;;;;;5.75;2.30;;;;;;;20.22;41.05;102743.28;5073762;28;20532;-61
2021/11/06 00:39:00;;;;;;;6.07;2.20;;;;;;;20.20;40.98;102733.72;5074438;28;20111;-61
2021/11/06 00:41:25;;;;;;;5.75;2.30;;;;;;;20.16;40.91;102733.06;5074624;28;20392;-60
2021/11/06 00:43:51;;;;;;;4.97;2.08;;;;;;;20.15;41.18;102735.78;5073835;28;20028;-61
2021/11/06 00:46:16;;;;;;;5.22;2.35;;;;;;;20.13;41.10;102733.25;5074172;28;20044;-60
2021/11/06 00:48:41;;;;;;;6.80;2.35;;;;;;;20.10;41.05;102728.97;5073627;28;20095;-60
2021/11/06 00:51:07;;;;;;;5.78;2.50;;;;;;;20.09;40.99;102732.59;5074288;28;20029;-60
2021/11/06 00:53:32;;;;;;;5.65;2.40;;;;;;;20.07;41.03;102725.66;5074597;28;20457;-60
2021/11/06 00:55:58;;;;;;;4.68;2.20;;;;;;;20.05;41.10;102731.06;5072477;28;20315;-60
2021/11/06 00:58:23;;;;;;;5.57;1.92;;;;;;;20.05;41.14;102724.91;5074372;28;20392;-60
2021/11/06 01:00:48;;;;;;;5.88;2.58;;;;;;;20.01;41.01;102726.91;5074255;28;20476;-60
2021/11/06 01:03:14;;;;;;;4.68;2.08;;;;;;;20.01;41.12;102737.50;5073036;28;20040;-60
2021/11/06 01:05:39;;;;;;;4.25;2.15;;;;;;;20.00;41.06;102735.78;5074587;28;20021;-60
2021/11/06 01:08:04;;;;;;;5.30;2.00;;;;;;;19.98;41.00;102731.50;5074011;28;20035;-60
2021/11/06 01:10:33;;;;;;;4.63;2.43;;;;;;;19.94;40.88;102729.03;5073432;28;20464;-60
2021/11/06 01:12:58;;;;;;;4.53;2.20;;;;;;;19.96;41.08;102733.41;5073769;28;20273;-60
2021/11/06 01:15:24;;;;;;;4.78;2.15;;;;;;;19.93;41.00;102729.13;5073966;28;20078;-60
2021/11/06 01:17:49;;;;;;;4.72;2.05;;;;;;;19.91;41.10;102744.25;5073282;28;20399;-60
2021/11/06 01:20:15;;;;;;;4.22;2.00;;;;;;;19.90;41.01;102739.91;5073615;28;20055;-60
2021/11/06 01:22:41;;;;;;;4.85;2.50;;;;;;;19.88;40.97;102742.63;5073832;28;20028;-60
2021/11/06 01:25:07;;;;;;;4.75;2.17;;;;;;;19.86;40.85;102735.75;5072557;28;20032;-60
2021/11/06 01:27:33;;;;;;;4.55;2.05;;;;;;;19.85;41.06;102744.59;5073643;28;20021;-60
2021/11/06 01:30:02;;;;;;;5.63;2.20;;;;;;;19.83;40.80;102739.41;5073430;28;20021;-60
2021/11/06 01:32:27;;;;;;;4.85;2.65;;;;;;;19.83;41.12;102738.56;5072680;28;20430;-61
2021/11/06 01:34:53;;;;;;;4.78;2.28;;;;;;;19.81;40.88;102738.66;5073656;28;20127;-59
2021/11/06 01:37:18;;;;;;;5.30;2.30;;;;;;;19.80;40.87;102738.75;5073176;28;20031;-59
2021/11/06 01:39:43;;;;;;;5.40;2.20;;;;;;;19.78;40.71;102730.91;5071751;28;20387;-60
2021/11/06 01:42:09;;;;;;;4.90;2.17;;;;;;;19.77;40.98;102737.13;5072712;28;20040;-60
2021/11/06 01:44:34;;;;;;;4.32;2.25;;;;;;;19.75;40.86;102731.88;5073244;28;20028;-60
2021/11/06 01:46:59;;;;;;;4.90;2.05;;;;;;;19.74;40.99;102729.31;5072111;28;20032;-60
2021/11/06 01:49:25;;;;;;;4.95;2.22;;;;;;;19.71;40.79;102725.09;5073131;28;20379;-59
2021/11/06 01:51:52;;;;;;;4.20;2.15;;;;;;;19.70;40.94;102728.66;5073286;28;20031;-60
2021/11/06 01:54:21;;;;;;;5.68;2.63;;;;;;;19.69;40.82;102721.69;5072258;28;20081;-60
2021/11/06 01:56:46;;;;;;;4.47;2.00;;;;;;;19.68;40.77;102732.34;5072996;28;20131;-60
2021/11/06 01:59:12;;;;;;;4.25;2.13;;;;;;;19.67;40.92;102728.84;5072050;28;20119;-60
2021/11/06 02:01:38;;;;;;;4.32;2.15;;;;;;;19.67;40.92;102725.34;5072825;28;20443;-60
2021/11/06 02:04:03;;;;;;;4.95;2.30;;;;;;;19.65;40.97;102724.59;5072753;28;20041;-59
2021/11/06 02:06:29;;;;;;;5.88;2.47;;;;;;;19.64;40.79;102721.09;5072151;28;20024;-60
2021/11/06 02:08:54;;;;;;;5.82;2.45;;;;;;;19.63;40.82;102719.41;5072904;28;20103;-60
2021/11/06 02:11:20;;;;;;;5.77;2.13;;;;;;;19.60;40.93;102714.28;5072405;28;20029;-60
2021/11/06 02:13:52;;;;;;;5.78;2.50;;;;;;;19.58;40.87;102718.78;5071984;28;20372;-61
2021/11/06 02:16:17;;;;;;;5.20;2.30;;;;;;;19.57;40.99;102717.09;5072600;28;20037;-60
2021/11/06 02:18:46;;;;;;;5.78;2.40;;;;;;;19.55;40.98;102709.25;5072760;28;20086;-60
2021/11/06 02:21:14;;;;;;;4.97;2.38;;;;;;;19.55;40.69;102711.91;5071860;28;20120;-60
2021/11/06 02:23:43;;;;;;;5.10;2.28;;;;;;;19.53;40.79;102707.63;5072809;28;20028;-60
2021/11/06 02:26:11;;;;;;;4.82;1.95;;;;;;;19.52;40.62;102704.16;5072284;28;20040;-60
2021/11/06 02:28:37;;;;;;;4.50;2.22;;;;;;;19.52;40.76;102712.09;5071764;28;20063;-60
2021/11/06 02:31:02;;;;;;;4.30;2.00;;;;;;;19.49;40.58;102701.69;5072396;28;20063;-60
2021/11/06 02:33:28;;;;;;;5.15;2.15;;;;;;;19.48;40.59;102699.13;5072468;28;20052;-60
2021/11/06 02:35:53;;;;;;;5.88;2.03;;;;;;;19.47;40.86;102700.94;5071852;28;20033;-59
2021/11/06 02:38:19;;;;;;;5.25;2.10;;;;;;;19.46;40.81;102693.91;5072124;28;20099;-60
2021/11/06 02:40:45;;;;;;;4.05;2.00;;;;;;;19.46;40.61;102695.72;5072417;28;20032;-60
2021/11/06 02:43:10;;;;;;;4.22;2.03;;;;;;;19.45;40.55;102708.06;5071127;28;20032;-60
2021/11/06 02:45:37;;;;;;;4.72;2.30;;;;;;;19.44;40.72;102721.38;5072625;28;20029;-60
2021/11/06 02:48:05;;;;;;;4.70;2.30;;;;;;;19.42;40.68;102739.97;5072352;28;20040;-61
2021/11/06 02:50:30;;;;;;;4.78;2.03;;;;;;;19.41;40.67;102733.00;5071600;28;20391;-60
2021/11/06 02:52:56;;;;;;;3.97;1.85;;;;;;;19.42;40.72;102725.91;5072289;28;20025;-59
2021/11/06 02:55:22;;;;;;;4.75;1.88;;;;;;;19.40;40.77;102726.84;5071344;28;20052;-60
2021/11/06 02:57:48;;;;;;;5.43;2.03;;;;;;;19.39;40.70;102733.09;5072324;28;20043;-60
2021/11/06 03:00:18;;;;;;;5.78;2.17;;;;;;;19.37;40.81;102726.19;5072056;28;20082;-60
2021/11/06 03:02:43;;;;;;;5.20;2.10;;;;;;;19.36;40.59;102727.97;5071588;28;20168;-60
2021/11/06 03:05:11;;;;;;;5.38;2.63;;;;;;;19.35;40.64;102731.53;5072024;28;20460;-60
2021/11/06 03:07:36;;;;;;;4.57;2.50;;;;;;;19.34;40.94;102732.50;5072310;28;20025;-61
2021/11/06 03:10:10;;;;;;;4.07;2.15;;;;;;;19.35;40.89;102725.41;5071110;28;20372;-60
2021/11/06 03:12:36;;;;;;;4.93;2.22;;;;;;;19.34;40.63;102716.66;5072103;28;20063;-60
2021/11/06 03:15:03;;;;;;;4.05;2.00;;;;;;;19.35;40.73;102717.50;5071950;28;20064;-60
2021/11/06 03:17:28;;;;;;;5.20;2.50;;;;;;;19.34;40.63;102718.41;5071680;28;20056;-60
2021/11/06 03:19:57;;;;;;;3.95;2.03;;;;;;;19.33;40.81;102717.56;5072234;28;20419;-60
2021/11/06 03:22:22;;;;;;;5.13;2.20;;;;;;;19.32;40.72;102707.94;5072127;28;20028;-60
2021/11/06 03:24:47;;;;;;;5.77;2.30;;;;;;;19.32;40.93;102707.09;5071186;28;20048;-60
2021/11/06 03:27:13;;;;;;;3.97;2.38;;;;;;;19.34;41.03;102708.72;5071869;28;20277;-60
2021/11/06 03:29:45;;;;;;;4.20;1.97;;;;;;;19.37;41.15;102708.50;5072072;28;20055;-61
2021/11/06 03:32:11;;;;;;;5.13;2.00;;;;;;;19.41;40.77;102714.50;5071037;28;20277;-60
2021/11/06 03:34:37;;;;;;;4.65;2.20;;;;;;;19.46;40.73;102706.31;5072031;28;20032;-60
2021/11/06 03:37:04;;;;;;;4.50;2.42;;;;;;;19.49;40.62;102712.25;5071669;28;20372;-60
2021/11/06 03:39:29;;;;;;;3.80;2.10;;;;;;;19.51;40.45;102702.44;5071095;28;20020;-60
2021/11/06 03:41:55;;;;;;;5.28;2.40;;;;;;;19.53;40.64;102707.63;5072087;28;20032;-61
2021/11/06 03:44:20;;;;;;;3.92;2.10;;;;;;;19.54;40.39;102704.06;5071111;28;20041;-60
2021/11/06 03:46:45;;;;;;;4.93;2.20;;;;;;;19.56;40.42;102697.72;5071157;28;20059;-60
2021/11/06 03:49:13;;;;;;;4.75;2.15;;;;;;;19.58;40.50;102701.16;5071578;28;20021;-60
2021/11/06 03:51:39;;;;;;;4.00;2.20;;;;;;;19.58;40.38;102706.44;5071030;28;20068;-60
2021/11/06 03:54:04;;;;;;;4.25;2.20;;;;;;;19.57;40.21;102699.44;5071242;28;20024;-60
2021/11/06 03:56:30;;;;;;;5.30;2.53;;;;;;;19.59;40.26;102699.34;5071523;28;20051;-60
2021/11/06 03:58:56;;;;;;;3.97;1.95;;;;;;;19.57;40.05;102694.16;5070874;28;20464;-60
2021/11/06 04:01:21;;;;;;;5.28;2.20;;;;;;;19.58;40.23;102697.63;5071849;28;20020;-59
2021/11/06 04:03:47;;;;;;;3.63;1.85;;;;;;;19.58;40.12;102698.50;5074284;28;20119;-59
2021/11/06 04:06:14;;;;;;;4.55;2.05;;;;;;;19.57;40.33;102691.50;5074286;28;20383;-60
2021/11/06 04:08:39;;;;;;;3.85;2.03;;;;;;;19.56;40.41;102689.78;5074895;28;20098;-60
2021/11/06 04:11:04;;;;;;;4.47;2.17;;;;;;;19.58;40.16;102690.56;5074971;28;20460;-60
2021/11/06 04:13:30;;;;;;;4.38;2.20;;;;;;;19.56;39.88;102689.78;5074395;28;20111;-60
2021/11/06 04:15:55;;;;;;;4.07;1.75;;;;;;;19.56;40.35;102689.78;5075040;28;20040;-60
2021/11/06 04:18:21;;;;;;;3.95;1.90;;;;;;;19.56;40.14;102699.53;5075010;28;20398;-59
2021/11/06 04:20:46;;;;;;;3.50;1.77;;;;;;;19.57;40.11;102695.94;5074397;28;20020;-59
2021/11/06 04:23:12;;;;;;;3.38;1.80;;;;;;;19.60;40.60;102694.91;5074703;28;20032;-59
2021/11/06 04:25:37;;;;;;;4.35;2.10;;;;;;;19.61;40.26;102699.25;5075199;28;20021;-61
2021/11/06 04:28:03;;;;;;;5.07;2.10;;;;;;;19.62;40.35;102696.53;5074044;28;20365;-61
2021/11/06 04:30:31;;;;;;;4.90;2.08;;;;;;;19.63;40.38;102690.31;5074991;28;20040;-60
2021/11/06 04:32:57;;;;;;;4.13;1.92;;;;;;;19.66;40.21;102694.53;5074569;28;20046;-61
2021/11/06 04:35:23;;;;;;;4.22;1.92;;;;;;;19.67;40.12;102694.47;5074124;28;20017;-61
2021/11/06 04:37:48;;;;;;;4.00;2.13;;;;;;;19.66;39.52;102698.06;5074867;28;20032;-60
2021/11/06 04:40:15;;;;;;;3.80;2.00;;;;;;;19.67;40.21;102704.19;5074276;28;20023;-60
2021/11/06 04:42:41;;;;;;;4.85;1.90;;;;;;;19.67;39.87;102694.47;5073714;28;20036;-60
2021/11/06 04:45:07;;;;;;;3.78;1.58;;;;;;;19.67;39.87;102691.81;5074309;28;20031;-59
2021/11/06 04:47:33;;;;;;;3.85;1.98;;;;;;;19.66;39.83;102676.91;5074847;28;20039;-60
2021/11/06 04:49:58;;;;;;;4.05;1.92;;;;;;;19.66;39.94;102676.03;5073511;28;20099;-61
2021/11/06 04:52:27;;;;;;;3.67;1.77;;;;;;;19.64;39.74;102683.22;5074389;28;20032;-60
2021/11/06 04:54:53;;;;;;;4.18;1.90;;;;;;;19.64;40.03;102685.84;5073087;28;20090;-60
2021/11/06 04:57:19;;;;;;;4.80;1.95;;;;;;;19.62;39.68;102680.66;5074172;28;20052;-60
2021/11/06 04:59:44;;;;;;;5.47;2.00;;;;;;;19.61;39.88;102686.88;5074386;28;20128;-61
2021/11/06 05:02:10;;;;;;;4.67;2.00;;;;;;;19.60;39.83;102689.59;5073109;28;20163;-60
2021/11/06 05:04:41;;;;;;;4.10;1.90;;;;;;;19.58;39.95;102695.88;5074099;28;20273;-59
2021/11/06 05:07:06;;;;;;;3.97;1.70;;;;;;;19.58;39.87;102700.28;5073902;28;20032;-59
2021/11/06 05:09:32;;;;;;;5.53;1.92;;;;;;;19.58;39.90;102697.63;5073435;28;20031;-60
2021/11/06 05:11:58;;;;;;;3.85;1.80;;;;;;;19.57;39.67;102694.16;5074041;28;20029;-60
2021/11/06 05:14:23;;;;;;;3.75;1.77;;;;;;;19.57;39.84;102694.16;5074093;28;20130;-60
2021/11/06 05:16:49;;;;;;;3.50;1.58;;;;;;;19.57;40.19;102694.16;5073202;28;20021;-61
2021/11/06 05:19:16;;;;;;;4.38;1.70;;;;;;;19.60;40.30;102685.19;5073497;28;20017;-60
2021/11/06 05:21:42;;;;;;;5.18;2.10;;;;;;;19.62;39.82;102690.41;5074064;28;20028;-60
2021/11/06 05:24:09;;;;;;;4.03;1.70;;;;;;;19.63;39.81;102702.66;5072192;28;20105;-59
2021/11/06 05:26:43;;;;;;;3.72;1.75;;;;;;;19.65;39.81;102700.78;5073545;28;20456;-59
2021/11/06 05:29:09;;;;;;;3.95;1.77;;;;;;;19.65;39.62;102695.50;5073318;28;20408;-60
2021/11/06 05:31:36;;;;;;;4.75;1.73;;;;;;;19.67;39.76;102693.63;5072850;28;20076;-60
2021/11/06 05:34:03;;;;;;;4.10;1.70;;;;;;;19.68;39.71;102697.97;5073116;28;20456;-61
2021/11/06 05:36:28;;;;;;;5.30;2.00;;;;;;;19.68;39.41;102696.16;5073205;28;20136;-60
2021/11/06 05:38:54;;;;;;;3.67;1.80;;;;;;;19.66;39.33;102698.06;5072870;28;20107;-60
2021/11/06 05:41:19;;;;;;;4.75;2.20;;;;;;;19.65;39.65;102706.09;5073080;28;20029;-59
2021/11/06 05:43:45;;;;;;;4.35;1.65;;;;;;;19.63;39.48;102700.00;5073450;28;20040;-60
2021/11/06 05:46:10;;;;;;;3.88;1.67;;;;;;;19.63;39.56;102694.72;5072275;28;20472;-60
2021/11/06 05:48:36;;;;;;;3.92;1.85;;;;;;;19.62;39.38;102696.53;5073196;28;20108;-61
2021/11/06 05:51:07;;;;;;;4.05;2.00;;;;;;;19.62;39.56;102695.69;5073086;28;20498;-60
2021/11/06 05:53:32;;;;;;;3.10;1.50;;;;;;;19.61;39.51;102696.63;5073431;28;20021;-60
2021/11/06 05:55:58;;;;;;;3.38;1.52;;;;;;;19.60;39.50;102692.25;5072632;28;20050;-60
2021/11/06 05:58:23;;;;;;;4.25;1.73;;;;;;;19.60;39.68;102697.53;5071059;28;20582;-60
2021/11/06 06:00:48;;;;;;;3.50;1.80;;;;;;;19.58;39.43;102687.06;5072930;28;20396;-60
2021/11/06 06:03:14;;;;;;;3.40;1.70;;;;;;;19.56;39.78;102681.00;5072231;28;20031;-61
2021/11/06 06:05:39;;;;;;;3.75;1.85;;;;;;;19.55;39.72;102676.66;5072352;28;20021;-60
2021/11/06 06:08:05;;;;;;;3.97;1.75;;;;;;;19.54;39.70;102681.09;5072789;28;20024;-60
2021/11/06 06:10:30;;;;;;;3.90;1.67;;;;;;;19.54;39.87;102667.88;5072968;28;20421;-60
2021/11/06 06:12:55;;;;;;;4.10;1.80;;;;;;;19.56;39.97;102671.28;5072094;28;20553;-60
2021/11/06 06:15:24;;;;;;;3.38;1.70;;;;;;;19.60;40.06;102671.09;5072613;28;20289;-60
2021/11/06 06:17:51;;;;;;;3.83;1.60;;;;;;;19.67;40.46;102670.66;5072885;28;20024;-60
2021/11/06 06:20:21;;;;;;;3.83;1.75;;;;;;;19.79;41.01;102670.88;5071885;28;20120;-61
2021/11/06 06:22:46;;;;;;;3.50;1.60;;;;;;;19.87;41.33;102672.16;5072718;28;20086;-61
2021/11/06 06:25:13;;;;;;;3.55;1.45;;;;;;;19.94;41.30;102667.34;5072024;28;20045;-61
2021/11/06 06:27:40;;;;;;;3.20;1.55;;;;;;;19.99;41.40;102670.53;5071901;28;20031;-60
2021/11/06 06:30:08;;;;;;;3.53;1.60;;;;;;;20.07;41.43;102673.56;5072251;28;20028;-60
2021/11/06 06:32:33;;;;;;;4.00;1.40;;;;;;;20.14;41.33;102686.44;5072726;28;20031;-60
2021/11/06 06:34:59;;;;;;;3.28;1.50;;;;;;;20.21;41.08;102685.13;5071752;28;20036;-60
2021/11/06 06:37:28;;;;;;;2.83;1.25;;;;;;;20.26;40.91;102686.53;5072807;28;20051;-60
2021/11/06 06:39:53;;;;;;;3.40;1.35;;;;;;;20.31;40.95;102688.91;5072626;28;20027;-59
2021/11/06 06:42:20;;;;;;;3.40;1.40;;;;;;;20.34;40.74;102686.06;5071111;28;20028;-60
2021/11/06 06:44:45;;;;;;;3.60;1.50;;;;;;;20.36;40.67;102683.31;5072258;28;20078;-61
2021/11/06 06:47:12;;;;;;;3.22;1.50;;;;;;;20.39;40.17;102694.56;5072188;28;20029;-61
2021/11/06 06:49:41;;;;;;;3.53;1.40;;;;;;;20.41;40.29;102695.34;5071422;28;20438;-61
2021/11/06 06:52:06;;;;;;;3.05;1.35;;;;;;;20.46;40.42;102698.56;5071992;28;20028;-60
2021/11/06 06:54:32;;;;;;;2.83;1.20;;;;;;;20.49;40.27;102708.13;5071530;28;20464;-61
2021/11/06 06:56:57;;;;;;;4.15;1.10;;;;;;;20.53;40.32;102698.19;5071977;28;20071;-60
2021/11/06 06:59:22;;;;;;;3.38;1.40;;;;;;;20.54;40.18;102698.09;5072235;28;20043;-61
2021/11/06 07:01:51;;;;;;;3.50;1.70;;;;;;;20.54;40.47;102697.25;5071658;28;20408;-60
2021/11/06 07:04:16;;;;;;;4.28;1.50;;;;;;;20.55;40.17;102705.06;5071923;28;20040;-60
2021/11/06 07:06:42;;;;;;;3.07;1.17;;;;;;;20.57;40.36;102704.97;5072283;28;20061;-60
2021/11/06 07:09:08;;;;;;;3.05;1.10;;;;;;;20.60;40.13;102705.66;5071178;28;20597;-61
2021/11/06 07:11:33;;;;;;;3.03;1.30;;;;;;;20.63;40.22;102713.41;5072216;28;20021;-60
2021/11/06 07:13:58;;;;;;;2.90;1.20;;;;;;;20.66;40.17;102709.72;5071646;28;20384;-61
2021/11/06 07:16:24;;;;;;;2.63;1.17;;;;;;;20.67;39.41;102706.13;5071580;28;20289;-61
2021/11/06 07:18:49;;;;;;;2.75;1.25;;;;;;;20.70;39.32;102710.41;5072072;28;20463;-60
2021/11/06 07:21:15;;;;;;;3.40;1.35;;;;;;;20.74;39.57;102714.53;5071615;28;20111;-61
2021/11/06 07:23:40;;;;;;;2.90;1.30;;;;;;;20.74;39.66;102709.25;5071117;28;20107;-60
2021/11/06 07:26:05;;;;;;;2.22;0.93;;;;;;;20.73;39.72;102719.00;5071536;28;20028;-60
2021/11/06 07:28:31;;;;;;;2.45;1.02;;;;;;;20.75;39.85;102710.97;5071784;28;20054;-60
2021/11/06 07:30:58;;;;;;;3.05;1.27;;;;;;;20.71;39.85;102707.66;5070920;28;20364;-61
2021/11/06 07:33:23;;;;;;;3.45;0.98;;;;;;;20.69;39.83;102712.19;5071707;28;20422;-61
2021/11/06 07:35:49;;;;;;;3.35;1.10;;;;;;;20.72;39.75;102721.75;5071848;28;20170;-61
2021/11/06 07:38:14;;;;;;;3.10;1.88;;;;;;;20.74;39.98;102717.19;5072716;28;21114;-60
2021/11/06 07:40:40;;;;;;;2.88;1.50;;;;;;;20.74;40.08;102711.91;5075365;28;20025;-60
2021/11/06 07:43:06;;;;;;;3.78;1.10;;;;;;;20.73;40.20;102715.47;5074911;28;20073;-60
2021/11/06 07:45:32;;;;;;;2.45;1.10;;;;;;;20.73;40.20;102713.72;5074720;28;20025;-61
2021/11/06 07:47:58;;;;;;;2.33;1.10;;;;;;;20.76;40.12;102716.16;5075349;28;20354;-60
2021/11/06 07:50:23;;;;;;;3.13;1.20;;;;;;;20.78;40.15;102726.66;5075433;28;20078;-61
2021/11/06 07:52:48;;;;;;;3.58;1.52;;;;;;;20.78;39.76;102721.38;5074397;28;20128;-61
2021/11/06 07:55:17;;;;;;;3.17;1.40;;;;;;;20.82;39.63;102720.22;5074588;28;20101;-61
2021/11/06 07:57:46;;;;;;;4.07;1.52;;;;;;;20.84;38.89;102718.34;5074299;28;20036;-67
2021/11/06 08:00:14;;;;;;;3.30;1.70;;;;;;;20.86;39.83;102724.38;5075099;28;20031;-65
2021/11/06 08:02:41;;;;;;;4.32;1.50;;;;;;;20.84;40.10;102718.34;5075028;28;20025;-66
2021/11/06 08:05:08;;;;;;;2.88;1.23;;;;;;;20.82;40.22;102721.06;5073912;28;20044;-72
2021/11/06 08:07:36;;;;;;;2.80;1.20;;;;;;;20.86;40.05;102721.72;5075033;28;20029;-68
2021/11/06 08:10:06;;;;;;;2.78;1.23;;;;;;;20.83;39.52;102725.41;5074415;28;20025;-64
2021/11/06 08:12:33;;;;;;;5.40;1.80;;;;;;;20.76;40.06;102724.13;5074272;28;20025;-69
2021/11/06 08:14:59;;;;;;;3.72;1.45;;;;;;;20.75;40.45;102726.84;5074571;28;20028;-72
2021/11/06 08:17:24;;;;;;;2.65;1.17;;;;;;;20.75;40.51;102725.06;5074820;28;20048;-71
2021/11/06 08:19:50;;;;;;;3.30;1.20;;;;;;;20.75;40.70;102714.44;5073950;28;20028;-69
2021/11/06 08:22:18;;;;;;;2.75;1.15;;;;;;;20.77;40.64;102711.72;5074158;28;20028;-68
2021/11/06 08:24:43;;;;;;;4.28;1.42;;;;;;;20.79;41.00;102715.09;5074704;28;20031;-69
2021/11/06 08:27:09;;;;;;;2.30;1.08;;;;;;;20.82;40.74;102707.84;5073640;28;20016;-66
2021/11/06 08:29:35;;;;;;;2.22;1.05;;;;;;;20.82;40.84;102710.47;5074432;28;20445;-65
2021/11/06 08:32:00;;;;;;;3.15;1.10;;;;;;;20.79;40.88;102715.09;5074233;28;20033;-64
2021/11/06 08:34:26;;;;;;;2.50;1.23;;;;;;;20.78;40.91;102716.06;5073470;28;20048;-65
2021/11/06 08:36:53;;;;;;;3.08;1.20;;;;;;;20.78;41.11;102716.91;5074530;28;20040;-65
2021/11/06 08:39:20;;;;;;;3.72;1.40;;;;;;;20.79;41.02;102709.81;5074082;28;20035;-65
2021/11/06 08:41:47;;;;;;;2.88;1.20;;;;;;;20.80;41.01;102708.88;5073920;28;20094;-66
2021/11/06 08:44:20;;;;;;;2.72;1.00;;;;;;;20.86;40.61;102713.78;5074039;28;20360;-65
2021/11/06 08:46:48;;;;;;;2.63;1.15;;;;;;;20.93;40.36;102699.16;5074306;28;20029;-64
2021/11/06 08:49:13;;;;;;;3.25;1.20;;;;;;;20.97;40.27;102694.53;5072893;28;20070;-71
2021/11/06 08:51:41;;;;;;;3.33;1.15;;;;;;;21.00;40.20;102684.59;5074477;28;20036;-73
2021/11/06 08:54:10;;;;;;;3.08;1.25;;;;;;;21.07;39.91;102687.69;5073417;28;20032;-71
2021/11/06 08:56:35;;;;;;;3.05;1.13;;;;;;;21.10;40.03;102684.84;5074029;28;20040;-74
2021/11/06 08:59:00;;;;;;;3.25;1.25;;;;;;;21.11;40.32;102683.91;5073897;28;20024;-70
2021/11/06 09:01:26;;;;;;;3.60;1.20;;;;;;;21.13;40.34;102686.44;5073513;28;20040;-69
2021/11/06 09:03:52;;;;;;;3.55;1.20;;;;;;;21.12;40.06;102690.88;5074014;28;20024;-72
2021/11/06 09:06:18;;;;;;;2.15;1.02;;;;;;;21.11;40.19;102686.53;5073505;28;20020;-68
2021/11/06 09:08:44;;;;;;;3.70;1.05;;;;;;;21.08;40.41;102683.22;5072807;28;20043;-68
2021/11/06 09:11:12;;;;;;;2.75;1.13;;;;;;;21.09;40.35;102683.13;5073196;28;20024;-74
2021/11/06 09:13:43;;;;;;;2.47;1.08;;;;;;;21.10;40.52;102679.53;5073532;28;20031;-72
2021/11/06 09:16:10;;;;;;;2.55;0.98;;;;;;;21.14;40.24;102673.09;5072343;28;20043;-68
2021/11/06 09:18:39;;;;;;;3.00;0.98;;;;;;;21.17;40.31;102677.31;5073123;28;20109;-68
2021/11/06 09:21:09;;;;;;;2.33;0.90;;;;;;;21.18;40.21;102681.69;5072767;28;20211;-73
2021/11/06 09:23:35;;;;;;;3.85;1.30;;;;;;;21.19;40.03;102686.06;5072483;28;20033;-70
2021/11/06 09:26:01;;;;;;;2.25;1.00;;;;;;;21.17;40.05;102680.84;5072850;28;20032;-67
2021/11/06 09:28:47;;;;;;;2.47;1.00;;;;;;;21.16;40.29;102675.66;5073124;28;20078;-70
2021/11/06 09:31:20;;;;;;;4.03;1.10;;;;;;;21.17;40.25;102670.25;5071901;28;20039;-68
2021/11/06 09:33:46;;;;;;;3.00;1.00;;;;;;;21.18;40.38;102671.09;5072889;28;20403;-68
2021/11/06 09:36:12;;;;;;;2.25;0.90;;;;;;;21.19;40.34;102680.75;5071956;28;20037;-67
2021/11/06 09:38:41;;;;;;;2.20;0.93;;;;;;;21.19;40.58;102681.59;5072866;28;20021;-66
2021/11/06 09:41:09;;;;;;;4.32;1.27;;;;;;;21.18;40.35;102679.88;5072315;28;20024;-65
2021/11/06 09:43:36;;;;;;;2.55;0.90;;;;;;;21.12;40.45;102685.56;5075248;28;20035;-69
2021/11/06 09:46:05;;;;;;;2.10;1.10;;;;;;;21.08;40.52;102689.41;5073223;28;20064;-66
2021/11/06 09:48:31;;;;;;;2.65;1.10;;;;;;;21.10;40.33;102681.34;5073832;28;20102;-69
2021/11/06 09:51:00;;;;;;;3.40;1.20;;;;;;;21.16;40.44;102687.09;5072295;28;20037;-66
2021/11/06 09:53:39;;;;;;;2.47;1.20;;;;;;;21.22;40.23;102684.97;5073690;28;20121;-65
2021/11/06 09:56:12;;;;;;;2.88;1.10;;;;;;;21.30;40.03;102683.53;5072897;28;20037;-65
2021/11/06 09:58:39;;;;;;;2.43;1.13;;;;;;;21.36;39.94;102672.53;5072694;28;20476;-67
2021/11/06 10:01:05;;;;;;;3.08;1.10;;;;;;;21.43;39.75;102665.00;5072641;28;20032;-67
2021/11/06 10:03:31;;;;;;;2.60;1.05;;;;;;;21.41;39.97;102672.19;5073414;28;20051;-69
2021/11/06 10:06:00;;;;;;;3.70;1.10;;;;;;;21.34;39.90;102674.41;5071481;28;20492;-65
2021/11/06 10:08:35;;;;;;;3.33;1.38;;;;;;;21.26;39.98;102674.06;5072315;28;20108;-64
2021/11/06 10:11:09;;;;;;;4.68;1.20;;;;;;;21.23;40.20;102670.78;5071882;28;20376;-62
2021/11/06 10:13:56;;;;;;;2.47;1.00;;;;;;;21.19;40.05;102678.09;5071409;28;20040;-61
2021/11/06 10:16:43;;;;;;;2.75;0.95;;;;;;;21.16;40.25;102679.13;5072129;28;20492;-62
2021/11/06 10:19:19;;;;;;;2.45;1.10;;;;;;;21.14;40.42;102675.75;5071135;28;20068;-63
2021/11/06 10:21:49;;;;;;;3.00;1.10;;;;;;;21.14;40.44;102675.75;5072422;28;20090;-63
2021/11/06 10:24:16;;;;;;;2.08;1.00;;;;;;;21.10;40.28;102684.00;5071758;28;20021;-63
2021/11/06 10:26:41;;;;;;;3.00;0.90;;;;;;;21.11;40.40;102680.38;5071468;28;20486;-63
2021/11/06 10:29:20;;;;;;;3.25;0.90;;;;;;;21.16;40.18;102678.28;5077572;28;20056;-63
2021/11/06 10:31:55;;;;;;;2.03;0.80;;;;;;;21.21;39.96;102681.50;5072175;28;20085;-63
2021/11/06 10:34:34;;;;;;;2.53;0.95;;;;;;;21.21;40.06;102673.53;5071373;28;20186;-62
2021/11/06 10:37:02;;;;;;;3.08;1.00;;;;;;;21.20;40.02;102669.16;5071626;28;20078;-63
2021/11/06 10:39:28;;;;;;;3.20;1.42;;;;;;;21.18;40.02;102668.44;5071320;28;20104;-63
2021/11/06 10:42:09;;;;;;;4.10;1.00;;;;;;;21.14;40.21;102667.78;5072381;28;20116;-63
2021/11/06 10:44:35;;;;;;;2.85;1.10;;;;;;;21.12;40.07;102661.72;5072251;28;20028;-62
2021/11/06 10:47:00;;;;;;;3.22;1.10;;;;;;;21.10;39.99;102665.44;5070841;28;20445;-63
2021/11/06 10:49:48;;;;;;;2.47;1.10;;;;;;;21.04;40.15;102650.78;5072179;28;20387;-63
2021/11/06 10:52:16;;;;;;;4.22;1.10;;;;;;;21.06;40.10;102661.28;5071530;28;20288;-63
2021/11/06 10:54:58;;;;;;;2.40;1.02;;;;;;;21.00;40.23;102652.78;5070776;28;20059;-62
2021/11/06 10:57:25;;;;;;;2.45;1.00;;;;;;;20.96;40.25;102643.31;5071999;28;20025;-64
2021/11/06 11:00:08;;;;;;;2.22;1.00;;;;;;;20.97;40.24;102645.03;5071868;28;20025;-63
2021/11/06 11:02:33;;;;;;;3.65;1.00;;;;;;;20.97;40.67;102634.44;5070816;28;20491;-64
2021/11/06 11:05:02;;;;;;;3.58;0.90;;;;;;;21.03;40.71;102633.19;5071892;28;20029;-64
2021/11/06 11:07:27;;;;;;;3.05;1.15;;;;;;;21.07;40.35;102623.22;5071629;28;20360;-63
2021/11/06 11:09:53;;;;;;;2.83;1.03;;;;;;;21.05;40.17;102619.84;5071129;28;20024;-62
2021/11/06 11:12:19;;;;;;;3.42;1.10;;;;;;;21.04;40.29;102618.97;5073729;28;20765;-63
2021/11/06 11:14:54;;;;;;;2.90;1.00;;;;;;;21.12;40.06;102613.16;5075415;28;20525;-67
2021/11/06 11:17:38;;;;;;;3.00;1.05;;;;;;;21.16;40.11;102612.00;5075625;28;20033;-62
2021/11/06 11:20:23;;;;;;;3.92;1.00;;;;;;;21.20;40.31;102610.84;5076497;28;20029;-63
2021/11/06 11:23:08;;;;;;;3.47;1.02;;;;;;;21.27;39.91;102616.56;5076009;28;20452;-64